createdAt,value
2023-01-18T09:35:33.786Z,0.35
2023-01-18T09:37:36.512Z,0.88
2023-01-18T09:39:51.002Z,1.20
2023-01-18T09:42:01.801Z,1.05
2023-01-18T09:44:16.769Z,0.90
2023-01-18T09:46:21.995Z,0.73
2023-01-18T09:48:45.434Z,0.95
2023-01-18T09:50:48.900Z,0.68
2023-01-18T09:53:20.149Z,1.45
2023-01-18T09:55:46.382Z,1.40
2023-01-18T09:58:05.949Z,1.33
2023-01-18T10:00:36.297Z,1.35
2023-01-18T10:02:39.485Z,1.02
2023-01-18T10:04:47.955Z,1.45
2023-01-18T10:06:50.263Z,1.48
2023-01-18T10:09:00.641Z,1.90
2023-01-18T10:11:11.017Z,1.27
2023-01-18T10:13:22.524Z,1.05
2023-01-18T10:15:34.157Z,1.45
2023-01-18T10:17:40.663Z,1.70
2023-01-18T10:19:43.060Z,1.27
2023-01-18T10:21:55.085Z,1.50
2023-01-18T10:24:31.154Z,1.50
2023-01-18T10:26:38.061Z,1.85
2023-01-18T10:28:51.888Z,1.48
2023-01-18T10:31:16.304Z,1.37
2023-01-18T10:33:23.167Z,1.70
2023-01-18T10:35:34.656Z,2.33
2023-01-18T10:37:45.377Z,1.70
2023-01-18T10:39:53.772Z,2.12
2023-01-18T10:42:04.049Z,2.10
2023-01-18T10:44:09.457Z,1.98
2023-01-18T10:46:16.989Z,1.67
2023-01-18T10:48:32.572Z,1.80
2023-01-18T10:50:38.161Z,2.03
2023-01-18T10:52:40.594Z,1.90
2023-01-18T10:54:51.208Z,2.67
2023-01-18T10:57:02.695Z,1.90
2023-01-18T10:59:05.749Z,2.00
2023-01-18T11:01:20.373Z,1.92
2023-01-18T11:03:24.428Z,2.28
2023-01-18T11:05:34.795Z,2.75
2023-01-18T11:07:38.643Z,3.25
2023-01-18T11:09:44.005Z,2.35
2023-01-18T11:12:05.132Z,2.00
2023-01-18T11:14:27.028Z,2.70
2023-01-18T11:16:29.554Z,2.50
2023-01-18T11:18:32.456Z,2.72
2023-01-18T11:20:35.115Z,2.05
2023-01-18T11:22:38.259Z,2.10
2023-01-18T11:24:40.710Z,1.83
2023-01-18T11:27:00.367Z,2.40
2023-01-18T11:29:06.703Z,2.40
2023-01-18T11:31:15.889Z,2.65
2023-01-18T11:33:20.966Z,2.37
2023-01-18T11:35:37.320Z,2.08
2023-01-18T11:37:45.766Z,2.28
2023-01-18T11:39:48.656Z,2.12
2023-01-18T11:41:51.519Z,2.37
2023-01-18T11:44:23.297Z,2.75
2023-01-18T11:46:37.061Z,2.80
2023-01-18T11:48:50.110Z,3.67
2023-01-18T11:51:07.219Z,2.60
2023-01-18T11:53:15.786Z,2.22
2023-01-18T11:55:25.481Z,2.70
2023-01-18T11:57:30.890Z,2.58
2023-01-18T11:59:45.765Z,2.25
2023-01-18T12:01:53.949Z,2.30
2023-01-18T12:04:11.943Z,7.43
2023-01-18T12:06:48.635Z,2.05
2023-01-18T12:09:06.344Z,2.08
2023-01-18T12:11:27.744Z,2.30
2023-01-18T12:16:01.202Z,2.50
2023-01-18T12:18:38.514Z,2.20
2023-01-18T12:21:13.453Z,2.80
2023-01-18T12:23:23.576Z,2.17
2023-01-18T12:25:47.867Z,2.10
2023-01-18T12:28:20.183Z,2.85
2023-01-18T12:30:38.019Z,2.08
2023-01-18T12:33:10.725Z,2.78
2023-01-18T12:35:23.747Z,1.60
2023-01-18T12:37:31.481Z,2.28
2023-01-18T12:40:08.569Z,2.28
2023-01-18T12:42:23.195Z,2.08
2023-01-18T12:44:54.192Z,2.33
2023-01-18T12:47:39.509Z,4.75
2023-01-18T12:49:47.519Z,1.80
2023-01-18T12:52:06.054Z,2.25
2023-01-18T12:54:32.849Z,2.00
2023-01-18T12:56:41.709Z,2.10
2023-01-18T12:58:44.260Z,1.70
2023-01-18T13:00:53.757Z,1.75
2023-01-18T13:02:57.652Z,1.90
2023-01-18T13:05:17.868Z,1.90
2023-01-18T13:07:26.542Z,1.62
2023-01-18T13:09:37.166Z,1.40
2023-01-18T13:11:42.470Z,1.75
2023-01-18T13:13:47.278Z,1.80
2023-01-18T13:16:09.959Z,2.33
2023-01-18T13:18:36.795Z,2.58
2023-01-18T13:20:51.173Z,2.10
2023-01-18T13:23:14.953Z,2.28
2023-01-18T13:25:26.841Z,2.40
2023-01-18T13:27:31.369Z,2.78
2023-01-18T13:29:34.489Z,1.98
2023-01-18T13:31:38.010Z,2.70
2023-01-18T13:33:45.523Z,2.10
2023-01-18T13:35:55.238Z,1.60
2023-01-18T13:38:09.851Z,2.20
2023-01-18T13:40:33.161Z,3.08
2023-01-18T13:42:40.931Z,15.27
2023-01-18T13:44:50.019Z,5.72
2023-01-18T13:46:57.255Z,2.75
2023-01-18T13:49:02.461Z,5.47
2023-01-18T13:51:05.088Z,2.92
2023-01-18T13:53:13.587Z,2.78
2023-01-18T13:55:31.335Z,2.78
2023-01-18T13:57:35.429Z,3.20
2023-01-18T13:59:44.648Z,3.05
2023-01-18T14:01:49.445Z,3.25
2023-01-18T14:03:53.022Z,3.35
2023-01-18T14:05:57.253Z,3.37
2023-01-18T14:08:01.813Z,6.12
2023-01-18T14:10:08.208Z,3.35
2023-01-18T14:12:11.804Z,3.10
2023-01-18T14:14:16.029Z,3.45
2023-01-18T14:16:25.327Z,3.00
2023-01-18T14:18:30.253Z,3.50
2023-01-18T14:20:52.051Z,3.22
2023-01-18T14:23:24.367Z,2.60
2023-01-18T14:25:48.824Z,3.28
2023-01-18T14:28:04.642Z,2.42
2023-01-18T14:30:13.491Z,3.28
2023-01-18T14:32:23.334Z,3.62
2023-01-18T14:34:31.471Z,2.90
2023-01-18T14:36:36.246Z,3.12
2023-01-18T14:38:40.179Z,3.55
2023-01-18T14:40:43.763Z,3.60
2023-01-18T14:42:50.733Z,4.07
2023-01-18T14:44:58.530Z,3.17
2023-01-18T14:47:13.732Z,3.22
2023-01-18T14:49:35.433Z,4.87
2023-01-18T14:51:37.760Z,3.92
2023-01-18T14:53:47.541Z,4.80
2023-01-18T14:56:07.369Z,3.70
2023-01-18T14:58:14.053Z,3.75
2023-01-18T15:00:17.655Z,4.03
2023-01-18T15:02:24.870Z,4.32
2023-01-18T15:04:33.137Z,3.45
2023-01-18T15:06:48.836Z,4.03
2023-01-18T15:08:51.843Z,3.42
2023-01-18T15:10:54.673Z,3.22
2023-01-18T15:12:59.329Z,2.95
2023-01-18T15:15:25.672Z,3.03
2023-01-18T15:17:28.041Z,3.58
2023-01-18T15:19:42.473Z,3.70
2023-01-18T15:21:46.069Z,4.45
2023-01-18T15:23:50.366Z,3.65
2023-01-18T15:25:54.683Z,3.42
2023-01-18T15:28:14.933Z,3.50
2023-01-18T15:30:25.691Z,3.60
2023-01-18T15:32:33.223Z,3.67
2023-01-18T15:34:38.283Z,3.65
2023-01-18T15:36:41.718Z,3.62
2023-01-18T15:38:44.056Z,4.03
2023-01-18T15:40:58.236Z,4.18
2023-01-18T15:43:06.909Z,3.67
2023-01-18T15:45:21.074Z,5.57
2023-01-18T15:47:38.493Z,5.60
2023-01-18T15:49:44.335Z,4.50
2023-01-18T15:51:52.710Z,14.85
2023-01-18T15:53:56.596Z,31.73
2023-01-18T15:56:04.537Z,5.65
2023-01-18T15:58:36.050Z,9.43
2023-01-18T16:00:43.234Z,5.85
2023-01-18T16:02:46.429Z,4.60
2023-01-18T16:04:48.945Z,7.15
2023-01-18T16:06:51.418Z,10.25
2023-01-18T16:08:58.240Z,7.70
2023-01-18T16:11:01.460Z,8.82
2023-01-18T16:13:26.852Z,7.18
2023-01-18T16:15:31.150Z,6.40
2023-01-18T16:17:35.455Z,7.95
2023-01-18T16:19:42.356Z,8.52
2023-01-18T16:21:57.577Z,6.03
2023-01-18T16:24:00.463Z,6.70
2023-01-18T16:26:04.863Z,5.95
2023-01-18T16:28:07.636Z,6.80
2023-01-18T16:30:34.772Z,5.80
2023-01-18T16:32:38.478Z,8.90
2023-01-18T16:34:41.529Z,6.10
2023-01-18T16:36:44.103Z,6.95
2023-01-18T16:38:47.111Z,7.68
2023-01-18T16:40:51.656Z,5.53
2023-01-18T16:42:59.733Z,4.70
2023-01-18T16:45:02.295Z,4.53
2023-01-18T16:47:05.454Z,6.22
2023-01-18T16:49:16.962Z,8.05
2023-01-18T16:51:19.721Z,6.07
2023-01-18T16:53:23.695Z,11.18
2023-01-18T16:55:26.429Z,5.50
2023-01-18T16:57:29.794Z,5.82
2023-01-18T16:59:32.915Z,4.57
2023-01-18T17:01:35.767Z,5.82
2023-01-18T17:03:40.019Z,6.80
2023-01-18T17:05:43.590Z,6.75
2023-01-18T17:07:46.201Z,5.80
2023-01-18T17:09:52.534Z,6.37
2023-01-18T17:11:56.087Z,7.25
2023-01-18T17:13:58.611Z,8.52
2023-01-18T17:16:01.522Z,8.50
2023-01-18T17:18:05.018Z,7.10
2023-01-18T17:20:20.958Z,7.97
2023-01-18T17:22:23.716Z,7.65
2023-01-18T17:24:30.195Z,11.10
2023-01-18T17:26:33.020Z,15.27
2023-01-18T17:28:39.276Z,10.68
2023-01-18T17:30:48.490Z,7.10
2023-01-18T17:32:51.678Z,6.95
2023-01-18T17:34:55.411Z,7.65
2023-01-18T17:36:59.128Z,20.73
2023-01-18T17:39:02.163Z,7.93
2023-01-18T17:41:08.218Z,6.62
2023-01-18T17:43:32.974Z,12.37
2023-01-18T17:45:35.939Z,13.60
2023-01-18T17:47:42.527Z,6.93
2023-01-18T17:49:45.683Z,7.30
2023-01-18T17:51:48.339Z,10.32
2023-01-18T17:53:51.545Z,10.27
2023-01-18T17:55:55.853Z,8.50
2023-01-18T17:57:58.558Z,7.37
2023-01-18T18:00:03.062Z,7.75
2023-01-18T18:02:12.127Z,9.73
2023-01-18T18:04:15.605Z,8.75
2023-01-18T18:06:31.467Z,6.40
2023-01-18T18:08:35.165Z,6.03
2023-01-18T18:10:44.008Z,5.72
2023-01-18T18:12:50.157Z,6.60
2023-01-18T18:14:56.403Z,6.97
2023-01-18T18:17:02.587Z,7.22
2023-01-18T18:19:05.881Z,7.30
2023-01-18T18:21:10.426Z,8.65
2023-01-18T18:23:14.524Z,10.55
2023-01-18T18:25:18.789Z,9.98
2023-01-18T18:27:26.594Z,10.82
2023-01-18T18:29:34.941Z,15.82
2023-01-18T18:31:42.749Z,34.75
2023-01-18T18:33:45.783Z,14.40
2023-01-18T18:35:50.392Z,9.32
2023-01-18T18:37:55.832Z,7.90
2023-01-18T18:39:58.727Z,8.50
2023-01-18T18:42:10.040Z,9.02
2023-01-18T18:44:13.698Z,8.50
2023-01-18T18:46:17.259Z,8.60
2023-01-18T18:48:21.064Z,9.93
2023-01-18T18:50:28.923Z,12.10
2023-01-18T18:52:34.842Z,11.02
2023-01-18T18:54:38.894Z,32.20
2023-01-18T18:56:42.783Z,33.38
2023-01-18T18:58:49.425Z,10.70
2023-01-18T19:00:52.982Z,10.60
2023-01-18T19:03:02.133Z,12.25
2023-01-18T19:05:06.579Z,13.05
2023-01-18T19:07:10.545Z,13.93
2023-01-18T19:09:14.039Z,12.37
2023-01-18T19:11:18.506Z,14.18
2023-01-18T19:13:22.665Z,12.73
2023-01-18T19:15:26.287Z,14.18
2023-01-18T19:17:31.548Z,47.17
2023-01-18T19:19:36.910Z,42.70
2023-01-18T19:21:42.274Z,21.12
2023-01-18T19:23:45.402Z,13.60
2023-01-18T19:25:52.705Z,16.77
2023-01-18T19:27:56.694Z,32.63
2023-01-18T19:30:00.353Z,14.25
2023-01-18T19:32:04.396Z,12.10
2023-01-18T19:34:07.848Z,11.60
2023-01-18T19:36:17.535Z,10.82
2023-01-18T19:38:24.122Z,10.88
2023-01-18T19:40:29.304Z,11.02
2023-01-18T19:42:33.269Z,12.73
2023-01-18T19:44:39.954Z,18.23
2023-01-18T19:46:43.566Z,13.50
2023-01-18T19:48:48.524Z,11.57
2023-01-18T19:50:52.911Z,11.45
2023-01-18T19:52:56.781Z,12.20
2023-01-18T19:55:00.051Z,11.93
2023-01-18T19:57:04.663Z,11.38
2023-01-18T19:59:08.579Z,13.30
2023-01-18T20:01:26.851Z,11.50
2023-01-18T20:03:40.284Z,10.80
2023-01-18T20:05:46.162Z,11.65
2023-01-18T20:07:49.827Z,11.12
2023-01-18T20:09:54.990Z,11.27
2023-01-18T20:11:59.897Z,13.43
2023-01-18T20:14:03.032Z,13.13
2023-01-18T20:16:06.935Z,13.52
2023-01-18T20:18:10.893Z,11.70
2023-01-18T20:20:24.109Z,12.35
2023-01-18T20:22:35.387Z,12.48
2023-01-18T20:24:38.969Z,9.35
2023-01-18T20:26:43.835Z,11.75
2023-01-18T20:28:48.981Z,11.65
2023-01-18T20:30:52.678Z,11.35
2023-01-18T20:32:56.795Z,9.95
2023-01-18T20:35:00.556Z,10.20
2023-01-18T20:37:04.932Z,9.57
2023-01-18T20:39:07.988Z,9.02
2023-01-18T20:41:11.767Z,9.95
2023-01-18T20:43:14.696Z,10.70
2023-01-18T20:45:19.224Z,9.60
2023-01-18T20:47:22.863Z,9.68
2023-01-18T20:49:37.215Z,9.30
2023-01-18T20:51:42.008Z,9.95
2023-01-18T20:53:45.355Z,10.60
2023-01-18T20:55:48.124Z,10.23
2023-01-18T20:57:52.523Z,10.20
2023-01-18T20:59:56.160Z,9.57
2023-01-18T21:01:59.226Z,8.65
2023-01-18T21:04:04.519Z,9.52
2023-01-18T21:06:08.623Z,9.18
2023-01-18T21:08:13.186Z,9.93
2023-01-18T21:10:16.275Z,10.70
2023-01-18T21:12:19.025Z,10.70
2023-01-18T21:14:21.772Z,10.18
2023-01-18T21:16:24.901Z,11.38
2023-01-18T21:18:28.230Z,10.32
2023-01-18T21:20:31.643Z,10.55
2023-01-18T21:22:34.348Z,9.60
2023-01-18T21:24:37.269Z,9.50
2023-01-18T21:26:39.842Z,10.90
2023-01-18T21:28:42.352Z,12.55
2023-01-18T21:30:45.127Z,11.98
2023-01-18T21:32:47.925Z,12.45
2023-01-18T21:34:50.523Z,9.75
2023-01-18T21:36:53.227Z,10.70
2023-01-18T21:38:55.681Z,10.48
2023-01-18T21:41:18.331Z,10.35
2023-01-18T21:43:40.886Z,11.35
2023-01-18T21:45:55.547Z,9.30
2023-01-18T21:47:59.664Z,10.20
2023-01-18T21:50:21.034Z,9.40
2023-01-18T21:52:41.962Z,10.90
2023-01-18T21:54:44.417Z,9.52
2023-01-18T21:56:47.475Z,9.63
2023-01-18T21:59:00.792Z,17.55
2023-01-18T22:01:14.544Z,12.05
2023-01-18T22:03:18.591Z,12.48
2023-01-18T22:05:20.960Z,9.95
2023-01-18T22:07:23.463Z,10.02
2023-01-18T22:09:27.466Z,19.90
2023-01-18T22:11:30.001Z,19.67
2023-01-18T22:13:32.740Z,9.70
2023-01-18T22:15:35.439Z,9.77
2023-01-18T22:17:37.812Z,9.02
2023-01-18T22:19:40.231Z,9.05
2023-01-18T22:21:42.929Z,9.55
2023-01-18T22:23:45.333Z,9.50
2023-01-18T22:25:47.791Z,9.02
2023-01-18T22:27:50.449Z,10.20
2023-01-18T22:29:52.755Z,9.23
2023-01-18T22:31:56.321Z,9.65
2023-01-18T22:33:58.942Z,10.30
2023-01-18T22:36:01.259Z,10.75
2023-01-18T22:38:03.973Z,9.38
2023-01-18T22:40:07.832Z,10.43
2023-01-18T22:42:10.176Z,10.63
2023-01-18T22:44:16.346Z,10.07
2023-01-18T22:46:21.152Z,9.43
2023-01-18T22:48:23.848Z,9.38
2023-01-18T22:50:26.132Z,11.00
